<?xml version="1.0" encoding="UTF-8" standalone="no" ?>
<gpx xmlns="http://www.topografix.com/GPX/1/1" xmlns:xsi="http://www.w3.org/2001/XMLSchema-instance" xsi:schemaLocation="http://www.topografix.com/GPX/1/1 http://www.topografix.com/GPX/1/1/gpx.xsd" version="1.1" creator="VisuGPX - https://www.visugpx.com">
  <metadata>
    <name>2024-12-05-46 Bach circuit matin</name>
    <desc><![CDATA[Randonnée de 10km sans difficulté. De très beaux chemins principalement en sous-bois, passage dans quelques hameaux où les puits et four à pain sont parfois à découvrir et l'ensemble des puits et lavoirs d'Escabasse très bien entretenu]]></desc>
  </metadata>
  <trk>
    <name><![CDATA[Bach-Pech Cabrit10km D104m 20-03-2023-16375833]]></name>
    <trkseg>
      <trkpt lat="44.35025" lon="1.67061">
        <ele>318</ele>
        <time>2023-03-17T11:13:08Z</time>
      </trkpt>
      <trkpt lat="44.35028" lon="1.6706">
        <ele>318</ele>
        <time>2023-03-17T11:13:12Z</time>
      </trkpt>
      <trkpt lat="44.35027" lon="1.67063">
        <ele>318</ele>
        <time>2023-03-17T11:13:15Z</time>
      </trkpt>
      <trkpt lat="44.35024" lon="1.6706">
        <ele>318</ele>
        <time>2023-03-17T11:13:20Z</time>
      </trkpt>
      <trkpt lat="44.35028" lon="1.67061">
        <ele>318</ele>
        <time>2023-03-17T11:13:26Z</time>
      </trkpt>
      <trkpt lat="44.35024" lon="1.67062">
        <ele>318</ele>
        <time>2023-03-17T11:13:31Z</time>
      </trkpt>
      <trkpt lat="44.35026" lon="1.6709">
        <ele>319</ele>
        <time>2023-03-17T11:13:58Z</time>
      </trkpt>
      <trkpt lat="44.35028" lon="1.67089">
        <ele>319</ele>
        <time>2023-03-17T11:14:01Z</time>
      </trkpt>
      <trkpt lat="44.35023" lon="1.67095">
        <ele>319</ele>
        <time>2023-03-17T11:14:10Z</time>
      </trkpt>
      <trkpt lat="44.35016" lon="1.67096">
        <ele>319</ele>
        <time>2023-03-17T11:14:19Z</time>
      </trkpt>
      <trkpt lat="44.35021" lon="1.67091">
        <ele>319</ele>
        <time>2023-03-17T11:14:27Z</time>
      </trkpt>
      <trkpt lat="44.35024" lon="1.67074">
        <ele>318</ele>
        <time>2023-03-17T11:14:44Z</time>
      </trkpt>
      <trkpt lat="44.35026" lon="1.67076">
        <ele>318</ele>
        <time>2023-03-17T11:14:47Z</time>
      </trkpt>
      <trkpt lat="44.35026" lon="1.67093">
        <ele>319</ele>
        <time>2023-03-17T11:15:03Z</time>
      </trkpt>
      <trkpt lat="44.35024" lon="1.67093">
        <ele>319</ele>
        <time>2023-03-17T11:15:06Z</time>
      </trkpt>
      <trkpt lat="44.35016" lon="1.67102">
        <ele>319</ele>
        <time>2023-03-17T11:15:20Z</time>
      </trkpt>
      <trkpt lat="44.35014" lon="1.67108">
        <ele>319</ele>
        <time>2023-03-17T11:15:26Z</time>
      </trkpt>
      <trkpt lat="44.35002" lon="1.67124">
        <ele>320</ele>
        <time>2023-03-17T11:15:48Z</time>
      </trkpt>
      <trkpt lat="44.34999" lon="1.67108">
        <ele>320</ele>
        <time>2023-03-17T11:16:04Z</time>
      </trkpt>
      <trkpt lat="44.34992" lon="1.67094">
        <ele>319</ele>
        <time>2023-03-17T11:16:20Z</time>
      </trkpt>
      <trkpt lat="44.34949" lon="1.67056">
        <ele>319</ele>
        <time>2023-03-17T11:17:28Z</time>
      </trkpt>
      <trkpt lat="44.34864" lon="1.66975">
        <ele>318</ele>
        <time>2023-03-17T11:19:45Z</time>
      </trkpt>
      <trkpt lat="44.3483" lon="1.66931">
        <ele>316</ele>
        <time>2023-03-17T11:20:47Z</time>
      </trkpt>
      <trkpt lat="44.34825" lon="1.66916">
        <ele>316</ele>
        <time>2023-03-17T11:21:03Z</time>
      </trkpt>
      <trkpt lat="44.3482" lon="1.66914">
        <ele>316</ele>
        <time>2023-03-17T11:21:10Z</time>
      </trkpt>
      <trkpt lat="44.34804" lon="1.66889">
        <ele>315</ele>
        <time>2023-03-17T11:21:42Z</time>
      </trkpt>
      <trkpt lat="44.34747" lon="1.66791">
        <ele>314</ele>
        <time>2023-03-17T11:23:42Z</time>
      </trkpt>
      <trkpt lat="44.34728" lon="1.66756">
        <ele>314</ele>
        <time>2023-03-17T11:24:24Z</time>
      </trkpt>
      <trkpt lat="44.34719" lon="1.66732">
        <ele>314</ele>
        <time>2023-03-17T11:24:50Z</time>
      </trkpt>
      <trkpt lat="44.34709" lon="1.66694">
        <ele>314</ele>
        <time>2023-03-17T11:25:29Z</time>
      </trkpt>
      <trkpt lat="44.3471" lon="1.66668">
        <ele>314</ele>
        <time>2023-03-17T11:25:54Z</time>
      </trkpt>
      <trkpt lat="44.34724" lon="1.66562">
        <ele>313</ele>
        <time>2023-03-17T11:27:37Z</time>
      </trkpt>
      <trkpt lat="44.34715" lon="1.66509">
        <ele>313</ele>
        <time>2023-03-17T11:28:29Z</time>
      </trkpt>
      <trkpt lat="44.34703" lon="1.66457">
        <ele>313</ele>
        <time>2023-03-17T11:29:21Z</time>
      </trkpt>
      <trkpt lat="44.3469" lon="1.66378">
        <ele>311</ele>
        <time>2023-03-17T11:30:38Z</time>
      </trkpt>
      <trkpt lat="44.34678" lon="1.66321">
        <ele>310</ele>
        <time>2023-03-17T11:31:35Z</time>
      </trkpt>
      <trkpt lat="44.34662" lon="1.66215">
        <ele>310</ele>
        <time>2023-03-17T11:33:18Z</time>
      </trkpt>
      <trkpt lat="44.34649" lon="1.66152">
        <ele>310</ele>
        <time>2023-03-17T11:34:21Z</time>
      </trkpt>
      <trkpt lat="44.34642" lon="1.66094">
        <ele>310</ele>
        <time>2023-03-17T11:35:17Z</time>
      </trkpt>
      <trkpt lat="44.34634" lon="1.66069">
        <ele>310</ele>
        <time>2023-03-17T11:35:43Z</time>
      </trkpt>
      <trkpt lat="44.34614" lon="1.65952">
        <ele>311</ele>
        <time>2023-03-17T11:37:38Z</time>
      </trkpt>
      <trkpt lat="44.34609" lon="1.65929">
        <ele>311</ele>
        <time>2023-03-17T11:38:01Z</time>
      </trkpt>
      <trkpt lat="44.3459" lon="1.65873">
        <ele>311</ele>
        <time>2023-03-17T11:39:00Z</time>
      </trkpt>
      <trkpt lat="44.34542" lon="1.6576">
        <ele>310</ele>
        <time>2023-03-17T11:41:05Z</time>
      </trkpt>
      <trkpt lat="44.34506" lon="1.65682">
        <ele>308</ele>
        <time>2023-03-17T11:42:34Z</time>
      </trkpt>
      <trkpt lat="44.34502" lon="1.65671">
        <ele>308</ele>
        <time>2023-03-17T11:42:46Z</time>
      </trkpt>
      <trkpt lat="44.345" lon="1.65659">
        <ele>308</ele>
        <time>2023-03-17T11:42:57Z</time>
      </trkpt>
      <trkpt lat="44.34491" lon="1.65678">
        <ele>308</ele>
        <time>2023-03-17T11:43:19Z</time>
      </trkpt>
      <trkpt lat="44.34469" lon="1.65755">
        <ele>309</ele>
        <time>2023-03-17T11:44:38Z</time>
      </trkpt>
      <trkpt lat="44.34445" lon="1.65846">
        <ele>310</ele>
        <time>2023-03-17T11:46:11Z</time>
      </trkpt>
      <trkpt lat="44.34427" lon="1.65906">
        <ele>311</ele>
        <time>2023-03-17T11:47:13Z</time>
      </trkpt>
      <trkpt lat="44.34397" lon="1.66023">
        <ele>312</ele>
        <time>2023-03-17T11:49:12Z</time>
      </trkpt>
      <trkpt lat="44.34363" lon="1.66124">
        <ele>315</ele>
        <time>2023-03-17T11:50:58Z</time>
      </trkpt>
      <trkpt lat="44.34362" lon="1.66136">
        <ele>316</ele>
        <time>2023-03-17T11:51:10Z</time>
      </trkpt>
      <trkpt lat="44.34355" lon="1.66151">
        <ele>316</ele>
        <time>2023-03-17T11:51:27Z</time>
      </trkpt>
      <trkpt lat="44.34347" lon="1.66175">
        <ele>316</ele>
        <time>2023-03-17T11:51:52Z</time>
      </trkpt>
      <trkpt lat="44.34317" lon="1.66314">
        <ele>315</ele>
        <time>2023-03-17T11:54:11Z</time>
      </trkpt>
      <trkpt lat="44.34309" lon="1.6634">
        <ele>315</ele>
        <time>2023-03-17T11:54:38Z</time>
      </trkpt>
      <trkpt lat="44.34276" lon="1.66469">
        <ele>316</ele>
        <time>2023-03-17T11:56:48Z</time>
      </trkpt>
      <trkpt lat="44.3427" lon="1.66495">
        <ele>317</ele>
        <time>2023-03-17T11:57:14Z</time>
      </trkpt>
      <trkpt lat="44.34266" lon="1.66522">
        <ele>316</ele>
        <time>2023-03-17T11:57:41Z</time>
      </trkpt>
      <trkpt lat="44.34253" lon="1.66579">
        <ele>316</ele>
        <time>2023-03-17T11:58:38Z</time>
      </trkpt>
      <trkpt lat="44.34238" lon="1.66628">
        <ele>317</ele>
        <time>2023-03-17T11:59:29Z</time>
      </trkpt>
      <trkpt lat="44.3423" lon="1.66668">
        <ele>318</ele>
        <time>2023-03-17T12:00:08Z</time>
      </trkpt>
      <trkpt lat="44.34225" lon="1.66704">
        <ele>318</ele>
        <time>2023-03-17T12:00:43Z</time>
      </trkpt>
      <trkpt lat="44.34222" lon="1.66713">
        <ele>318</ele>
        <time>2023-03-17T12:00:53Z</time>
      </trkpt>
      <trkpt lat="44.34211" lon="1.66773">
        <ele>319</ele>
        <time>2023-03-17T12:01:52Z</time>
      </trkpt>
      <trkpt lat="44.34169" lon="1.67059">
        <ele>322</ele>
        <time>2023-03-17T12:06:31Z</time>
      </trkpt>
      <trkpt lat="44.34162" lon="1.67081">
        <ele>323</ele>
        <time>2023-03-17T12:06:54Z</time>
      </trkpt>
      <trkpt lat="44.34157" lon="1.67091">
        <ele>323</ele>
        <time>2023-03-17T12:07:05Z</time>
      </trkpt>
      <trkpt lat="44.34159" lon="1.67091">
        <ele>323</ele>
        <time>2023-03-17T12:07:08Z</time>
      </trkpt>
      <trkpt lat="44.3416" lon="1.67093">
        <ele>323</ele>
        <time>2023-03-17T12:07:10Z</time>
      </trkpt>
      <trkpt lat="44.3416" lon="1.67092">
        <ele>323</ele>
        <time>2023-03-17T12:07:11Z</time>
      </trkpt>
      <trkpt lat="44.34151" lon="1.67095">
        <ele>323</ele>
        <time>2023-03-17T12:07:24Z</time>
      </trkpt>
      <trkpt lat="44.34119" lon="1.67084">
        <ele>324</ele>
        <time>2023-03-17T12:08:08Z</time>
      </trkpt>
      <trkpt lat="44.34064" lon="1.67056">
        <ele>324</ele>
        <time>2023-03-17T12:09:26Z</time>
      </trkpt>
      <trkpt lat="44.3405" lon="1.67046">
        <ele>324</ele>
        <time>2023-03-17T12:09:47Z</time>
      </trkpt>
      <trkpt lat="44.34057" lon="1.67022">
        <ele>324</ele>
        <time>2023-03-17T12:10:11Z</time>
      </trkpt>
      <trkpt lat="44.34059" lon="1.66999">
        <ele>324</ele>
        <time>2023-03-17T12:10:33Z</time>
      </trkpt>
      <trkpt lat="44.34047" lon="1.66944">
        <ele>324</ele>
        <time>2023-03-17T12:11:28Z</time>
      </trkpt>
      <trkpt lat="44.34038" lon="1.66919">
        <ele>324</ele>
        <time>2023-03-17T12:11:55Z</time>
      </trkpt>
      <trkpt lat="44.34032" lon="1.66892">
        <ele>323</ele>
        <time>2023-03-17T12:12:22Z</time>
      </trkpt>
      <trkpt lat="44.34028" lon="1.66836">
        <ele>321</ele>
        <time>2023-03-17T12:13:16Z</time>
      </trkpt>
      <trkpt lat="44.34006" lon="1.66795">
        <ele>322</ele>
        <time>2023-03-17T12:14:05Z</time>
      </trkpt>
      <trkpt lat="44.33961" lon="1.66702">
        <ele>321</ele>
        <time>2023-03-17T12:15:52Z</time>
      </trkpt>
      <trkpt lat="44.33954" lon="1.66673">
        <ele>321</ele>
        <time>2023-03-17T12:16:21Z</time>
      </trkpt>
      <trkpt lat="44.33947" lon="1.66582">
        <ele>321</ele>
        <time>2023-03-17T12:17:48Z</time>
      </trkpt>
      <trkpt lat="44.33943" lon="1.66561">
        <ele>321</ele>
        <time>2023-03-17T12:18:09Z</time>
      </trkpt>
      <trkpt lat="44.33937" lon="1.66545">
        <ele>321</ele>
        <time>2023-03-17T12:18:26Z</time>
      </trkpt>
      <trkpt lat="44.33898" lon="1.66537">
        <ele>321</ele>
        <time>2023-03-17T12:19:19Z</time>
      </trkpt>
      <trkpt lat="44.33882" lon="1.66532">
        <ele>321</ele>
        <time>2023-03-17T12:19:41Z</time>
      </trkpt>
      <trkpt lat="44.33861" lon="1.66522">
        <ele>321</ele>
        <time>2023-03-17T12:20:10Z</time>
      </trkpt>
      <trkpt lat="44.33841" lon="1.66517">
        <ele>321</ele>
        <time>2023-03-17T12:20:38Z</time>
      </trkpt>
      <trkpt lat="44.33833" lon="1.66522">
        <ele>321</ele>
        <time>2023-03-17T12:20:49Z</time>
      </trkpt>
      <trkpt lat="44.33804" lon="1.66563">
        <ele>322</ele>
        <time>2023-03-17T12:21:44Z</time>
      </trkpt>
      <trkpt lat="44.33783" lon="1.66579">
        <ele>322</ele>
        <time>2023-03-17T12:22:16Z</time>
      </trkpt>
      <trkpt lat="44.33765" lon="1.66583">
        <ele>322</ele>
        <time>2023-03-17T12:22:41Z</time>
      </trkpt>
      <trkpt lat="44.33743" lon="1.66585">
        <ele>322</ele>
        <time>2023-03-17T12:23:10Z</time>
      </trkpt>
      <trkpt lat="44.33724" lon="1.66595">
        <ele>322</ele>
        <time>2023-03-17T12:23:37Z</time>
      </trkpt>
      <trkpt lat="44.33694" lon="1.6663">
        <ele>322</ele>
        <time>2023-03-17T12:24:29Z</time>
      </trkpt>
      <trkpt lat="44.33678" lon="1.66638">
        <ele>322</ele>
        <time>2023-03-17T12:24:52Z</time>
      </trkpt>
      <trkpt lat="44.33659" lon="1.66643">
        <ele>322</ele>
        <time>2023-03-17T12:25:18Z</time>
      </trkpt>
      <trkpt lat="44.33642" lon="1.66645">
        <ele>321</ele>
        <time>2023-03-17T12:25:40Z</time>
      </trkpt>
      <trkpt lat="44.33614" lon="1.66639">
        <ele>320</ele>
        <time>2023-03-17T12:26:18Z</time>
      </trkpt>
      <trkpt lat="44.33612" lon="1.66641">
        <ele>320</ele>
        <time>2023-03-17T12:26:22Z</time>
      </trkpt>
      <trkpt lat="44.3361" lon="1.66636">
        <ele>320</ele>
        <time>2023-03-17T12:26:27Z</time>
      </trkpt>
      <trkpt lat="44.33609" lon="1.66639">
        <ele>320</ele>
        <time>2023-03-17T12:26:30Z</time>
      </trkpt>
      <trkpt lat="44.33613" lon="1.66648">
        <ele>320</ele>
        <time>2023-03-17T12:26:40Z</time>
      </trkpt>
      <trkpt lat="44.33607" lon="1.66648">
        <ele>320</ele>
        <time>2023-03-17T12:26:48Z</time>
      </trkpt>
      <trkpt lat="44.33606" lon="1.66646">
        <ele>320</ele>
        <time>2023-03-17T12:26:51Z</time>
      </trkpt>
      <trkpt lat="44.33608" lon="1.66644">
        <ele>320</ele>
        <time>2023-03-17T12:26:54Z</time>
      </trkpt>
      <trkpt lat="44.33604" lon="1.66647">
        <ele>320</ele>
        <time>2023-03-17T12:27:00Z</time>
      </trkpt>
      <trkpt lat="44.33606" lon="1.66648">
        <ele>320</ele>
        <time>2023-03-17T12:27:03Z</time>
      </trkpt>
      <trkpt lat="44.33604" lon="1.66651">
        <ele>320</ele>
        <time>2023-03-17T12:27:07Z</time>
      </trkpt>
      <trkpt lat="44.33608" lon="1.66646">
        <ele>320</ele>
        <time>2023-03-17T12:27:14Z</time>
      </trkpt>
      <trkpt lat="44.33606" lon="1.66653">
        <ele>320</ele>
        <time>2023-03-17T12:27:21Z</time>
      </trkpt>
      <trkpt lat="44.33609" lon="1.66655">
        <ele>320</ele>
        <time>2023-03-17T12:27:26Z</time>
      </trkpt>
      <trkpt lat="44.33609" lon="1.66652">
        <ele>320</ele>
        <time>2023-03-17T12:27:28Z</time>
      </trkpt>
      <trkpt lat="44.33611" lon="1.66652">
        <ele>320</ele>
        <time>2023-03-17T12:27:31Z</time>
      </trkpt>
      <trkpt lat="44.33608" lon="1.66652">
        <ele>320</ele>
        <time>2023-03-17T12:27:35Z</time>
      </trkpt>
      <trkpt lat="44.33605" lon="1.66655">
        <ele>320</ele>
        <time>2023-03-17T12:27:40Z</time>
      </trkpt>
      <trkpt lat="44.3361" lon="1.66648">
        <ele>320</ele>
        <time>2023-03-17T12:27:49Z</time>
      </trkpt>
      <trkpt lat="44.33612" lon="1.66649">
        <ele>320</ele>
        <time>2023-03-17T12:27:52Z</time>
      </trkpt>
      <trkpt lat="44.3361" lon="1.6665">
        <ele>320</ele>
        <time>2023-03-17T12:27:55Z</time>
      </trkpt>
      <trkpt lat="44.3361" lon="1.66647">
        <ele>320</ele>
        <time>2023-03-17T12:27:58Z</time>
      </trkpt>
      <trkpt lat="44.33612" lon="1.66647">
        <ele>320</ele>
        <time>2023-03-17T12:28:01Z</time>
      </trkpt>
      <trkpt lat="44.33612" lon="1.66648">
        <ele>320</ele>
        <time>2023-03-17T12:28:02Z</time>
      </trkpt>
      <trkpt lat="44.33609" lon="1.66646">
        <ele>320</ele>
        <time>2023-03-17T12:28:06Z</time>
      </trkpt>
      <trkpt lat="44.3361" lon="1.66636">
        <ele>320</ele>
        <time>2023-03-17T12:28:16Z</time>
      </trkpt>
      <trkpt lat="44.33577" lon="1.66631">
        <ele>319</ele>
        <time>2023-03-17T12:29:00Z</time>
      </trkpt>
      <trkpt lat="44.33557" lon="1.66626">
        <ele>318</ele>
        <time>2023-03-17T12:29:27Z</time>
      </trkpt>
      <trkpt lat="44.33512" lon="1.66622">
        <ele>316</ele>
        <time>2023-03-17T12:30:27Z</time>
      </trkpt>
      <trkpt lat="44.33474" lon="1.66624">
        <ele>315</ele>
        <time>2023-03-17T12:31:18Z</time>
      </trkpt>
      <trkpt lat="44.33432" lon="1.6663">
        <ele>314</ele>
        <time>2023-03-17T12:32:14Z</time>
      </trkpt>
      <trkpt lat="44.33418" lon="1.66628">
        <ele>314</ele>
        <time>2023-03-17T12:32:33Z</time>
      </trkpt>
      <trkpt lat="44.33407" lon="1.66624">
        <ele>314</ele>
        <time>2023-03-17T12:32:48Z</time>
      </trkpt>
      <trkpt lat="44.33396" lon="1.66617">
        <ele>313</ele>
        <time>2023-03-17T12:33:04Z</time>
      </trkpt>
      <trkpt lat="44.33379" lon="1.66611">
        <ele>312</ele>
        <time>2023-03-17T12:33:28Z</time>
      </trkpt>
      <trkpt lat="44.33332" lon="1.66586">
        <ele>311</ele>
        <time>2023-03-17T12:34:35Z</time>
      </trkpt>
      <trkpt lat="44.33247" lon="1.66548">
        <ele>305</ele>
        <time>2023-03-17T12:36:34Z</time>
      </trkpt>
      <trkpt lat="44.33213" lon="1.66529">
        <ele>302</ele>
        <time>2023-03-17T12:37:23Z</time>
      </trkpt>
      <trkpt lat="44.33179" lon="1.66507">
        <ele>298</ele>
        <time>2023-03-17T12:38:13Z</time>
      </trkpt>
      <trkpt lat="44.33156" lon="1.66483">
        <ele>296</ele>
        <time>2023-03-17T12:38:51Z</time>
      </trkpt>
      <trkpt lat="44.33146" lon="1.66475">
        <ele>296</ele>
        <time>2023-03-17T12:39:07Z</time>
      </trkpt>
      <trkpt lat="44.33135" lon="1.66468">
        <ele>296</ele>
        <time>2023-03-17T12:39:23Z</time>
      </trkpt>
      <trkpt lat="44.33102" lon="1.66452">
        <ele>296</ele>
        <time>2023-03-17T12:40:09Z</time>
      </trkpt>
      <trkpt lat="44.33066" lon="1.66467">
        <ele>296</ele>
        <time>2023-03-17T12:40:59Z</time>
      </trkpt>
      <trkpt lat="44.33025" lon="1.66481">
        <ele>295</ele>
        <time>2023-03-17T12:41:56Z</time>
      </trkpt>
      <trkpt lat="44.32974" lon="1.66521">
        <ele>293</ele>
        <time>2023-03-17T12:43:14Z</time>
      </trkpt>
      <trkpt lat="44.32973" lon="1.6652">
        <ele>293</ele>
        <time>2023-03-17T12:43:15Z</time>
      </trkpt>
      <trkpt lat="44.32972" lon="1.66524">
        <ele>293</ele>
        <time>2023-03-17T12:43:19Z</time>
      </trkpt>
      <trkpt lat="44.32956" lon="1.66543">
        <ele>293</ele>
        <time>2023-03-17T12:43:47Z</time>
      </trkpt>
      <trkpt lat="44.32934" lon="1.66575">
        <ele>292</ele>
        <time>2023-03-17T12:44:30Z</time>
      </trkpt>
      <trkpt lat="44.32928" lon="1.66589">
        <ele>292</ele>
        <time>2023-03-17T12:44:45Z</time>
      </trkpt>
      <trkpt lat="44.32908" lon="1.66664">
        <ele>296</ele>
        <time>2023-03-17T12:46:02Z</time>
      </trkpt>
      <trkpt lat="44.32907" lon="1.6668">
        <ele>297</ele>
        <time>2023-03-17T12:46:17Z</time>
      </trkpt>
      <trkpt lat="44.32911" lon="1.66692">
        <ele>299</ele>
        <time>2023-03-17T12:46:30Z</time>
      </trkpt>
      <trkpt lat="44.32923" lon="1.6672">
        <ele>302</ele>
        <time>2023-03-17T12:47:01Z</time>
      </trkpt>
      <trkpt lat="44.32927" lon="1.66726">
        <ele>302</ele>
        <time>2023-03-17T12:47:09Z</time>
      </trkpt>
      <trkpt lat="44.32941" lon="1.66762">
        <ele>305</ele>
        <time>2023-03-17T12:47:48Z</time>
      </trkpt>
      <trkpt lat="44.32979" lon="1.66841">
        <ele>308</ele>
        <time>2023-03-17T12:49:19Z</time>
      </trkpt>
      <trkpt lat="44.33028" lon="1.66961">
        <ele>313</ele>
        <time>2023-03-17T12:51:31Z</time>
      </trkpt>
      <trkpt lat="44.33077" lon="1.67058">
        <ele>312</ele>
        <time>2023-03-17T12:53:24Z</time>
      </trkpt>
      <trkpt lat="44.33109" lon="1.67145">
        <ele>306</ele>
        <time>2023-03-17T12:54:57Z</time>
      </trkpt>
      <trkpt lat="44.33117" lon="1.67161">
        <ele>305</ele>
        <time>2023-03-17T12:55:16Z</time>
      </trkpt>
      <trkpt lat="44.3318" lon="1.67267">
        <ele>297</ele>
        <time>2023-03-17T12:57:28Z</time>
      </trkpt>
      <trkpt lat="44.33213" lon="1.67309">
        <ele>295</ele>
        <time>2023-03-17T12:58:27Z</time>
      </trkpt>
      <trkpt lat="44.33211" lon="1.67308">
        <ele>295</ele>
        <time>2023-03-17T12:58:30Z</time>
      </trkpt>
      <trkpt lat="44.33217" lon="1.67312">
        <ele>295</ele>
        <time>2023-03-17T12:58:39Z</time>
      </trkpt>
      <trkpt lat="44.33236" lon="1.67339">
        <ele>294</ele>
        <time>2023-03-17T12:59:15Z</time>
      </trkpt>
      <trkpt lat="44.33248" lon="1.67346">
        <ele>294</ele>
        <time>2023-03-17T12:59:32Z</time>
      </trkpt>
      <trkpt lat="44.33267" lon="1.67352">
        <ele>295</ele>
        <time>2023-03-17T12:59:58Z</time>
      </trkpt>
      <trkpt lat="44.33277" lon="1.67359">
        <ele>296</ele>
        <time>2023-03-17T13:00:13Z</time>
      </trkpt>
      <trkpt lat="44.33277" lon="1.67373">
        <ele>296</ele>
        <time>2023-03-17T13:00:27Z</time>
      </trkpt>
      <trkpt lat="44.33266" lon="1.67411">
        <ele>295</ele>
        <time>2023-03-17T13:01:06Z</time>
      </trkpt>
      <trkpt lat="44.3326" lon="1.67425">
        <ele>295</ele>
        <time>2023-03-17T13:01:21Z</time>
      </trkpt>
      <trkpt lat="44.33257" lon="1.67442">
        <ele>296</ele>
        <time>2023-03-17T13:01:38Z</time>
      </trkpt>
      <trkpt lat="44.33257" lon="1.67451">
        <ele>297</ele>
        <time>2023-03-17T13:01:47Z</time>
      </trkpt>
      <trkpt lat="44.33258" lon="1.67469">
        <ele>298</ele>
        <time>2023-03-17T13:02:04Z</time>
      </trkpt>
      <trkpt lat="44.33265" lon="1.67501">
        <ele>301</ele>
        <time>2023-03-17T13:02:36Z</time>
      </trkpt>
      <trkpt lat="44.33276" lon="1.67535">
        <ele>304</ele>
        <time>2023-03-17T13:03:11Z</time>
      </trkpt>
      <trkpt lat="44.33283" lon="1.67549">
        <ele>305</ele>
        <time>2023-03-17T13:03:28Z</time>
      </trkpt>
      <trkpt lat="44.33298" lon="1.67567">
        <ele>307</ele>
        <time>2023-03-17T13:03:54Z</time>
      </trkpt>
      <trkpt lat="44.33324" lon="1.67586">
        <ele>310</ele>
        <time>2023-03-17T13:04:33Z</time>
      </trkpt>
      <trkpt lat="44.33337" lon="1.67598">
        <ele>312</ele>
        <time>2023-03-17T13:04:54Z</time>
      </trkpt>
      <trkpt lat="44.33351" lon="1.67608">
        <ele>313</ele>
        <time>2023-03-17T13:05:15Z</time>
      </trkpt>
      <trkpt lat="44.33366" lon="1.67616">
        <ele>314</ele>
        <time>2023-03-17T13:05:36Z</time>
      </trkpt>
      <trkpt lat="44.33407" lon="1.6765">
        <ele>318</ele>
        <time>2023-03-17T13:06:40Z</time>
      </trkpt>
      <trkpt lat="44.33446" lon="1.67677">
        <ele>321</ele>
        <time>2023-03-17T13:07:38Z</time>
      </trkpt>
      <trkpt lat="44.33461" lon="1.67685">
        <ele>322</ele>
        <time>2023-03-17T13:08:00Z</time>
      </trkpt>
      <trkpt lat="44.33485" lon="1.67705">
        <ele>323</ele>
        <time>2023-03-17T13:08:37Z</time>
      </trkpt>
      <trkpt lat="44.33485" lon="1.67707">
        <ele>323</ele>
        <time>2023-03-17T13:08:39Z</time>
      </trkpt>
      <trkpt lat="44.33483" lon="1.67706">
        <ele>323</ele>
        <time>2023-03-17T13:08:42Z</time>
      </trkpt>
      <trkpt lat="44.33485" lon="1.67707">
        <ele>323</ele>
        <time>2023-03-17T13:08:44Z</time>
      </trkpt>
      <trkpt lat="44.33486" lon="1.67705">
        <ele>323</ele>
        <time>2023-03-17T13:08:47Z</time>
      </trkpt>
      <trkpt lat="44.33486" lon="1.67709">
        <ele>323</ele>
        <time>2023-03-17T13:08:51Z</time>
      </trkpt>
      <trkpt lat="44.33521" lon="1.67752">
        <ele>321</ele>
        <time>2023-03-17T13:09:53Z</time>
      </trkpt>
      <trkpt lat="44.33669" lon="1.67913">
        <ele>302</ele>
        <time>2023-03-17T13:14:03Z</time>
      </trkpt>
      <trkpt lat="44.33719" lon="1.67963">
        <ele>299</ele>
        <time>2023-03-17T13:15:25Z</time>
      </trkpt>
      <trkpt lat="44.33732" lon="1.67974">
        <ele>299</ele>
        <time>2023-03-17T13:15:45Z</time>
      </trkpt>
      <trkpt lat="44.33744" lon="1.67981">
        <ele>299</ele>
        <time>2023-03-17T13:16:03Z</time>
      </trkpt>
      <trkpt lat="44.33783" lon="1.6801">
        <ele>302</ele>
        <time>2023-03-17T13:17:02Z</time>
      </trkpt>
      <trkpt lat="44.33794" lon="1.68023">
        <ele>303</ele>
        <time>2023-03-17T13:17:21Z</time>
      </trkpt>
      <trkpt lat="44.33817" lon="1.68059">
        <ele>304</ele>
        <time>2023-03-17T13:18:07Z</time>
      </trkpt>
      <trkpt lat="44.33839" lon="1.68089">
        <ele>305</ele>
        <time>2023-03-17T13:18:48Z</time>
      </trkpt>
      <trkpt lat="44.33847" lon="1.68109">
        <ele>306</ele>
        <time>2023-03-17T13:19:10Z</time>
      </trkpt>
      <trkpt lat="44.33864" lon="1.68162">
        <ele>306</ele>
        <time>2023-03-17T13:20:05Z</time>
      </trkpt>
      <trkpt lat="44.33873" lon="1.68181">
        <ele>307</ele>
        <time>2023-03-17T13:20:27Z</time>
      </trkpt>
      <trkpt lat="44.33893" lon="1.68212">
        <ele>307</ele>
        <time>2023-03-17T13:21:07Z</time>
      </trkpt>
      <trkpt lat="44.33905" lon="1.68228">
        <ele>307</ele>
        <time>2023-03-17T13:21:29Z</time>
      </trkpt>
      <trkpt lat="44.33916" lon="1.68237">
        <ele>307</ele>
        <time>2023-03-17T13:21:46Z</time>
      </trkpt>
      <trkpt lat="44.33947" lon="1.6824">
        <ele>308</ele>
        <time>2023-03-17T13:22:27Z</time>
      </trkpt>
      <trkpt lat="44.33979" lon="1.68301">
        <ele>306</ele>
        <time>2023-03-17T13:23:40Z</time>
      </trkpt>
      <trkpt lat="44.33989" lon="1.68328">
        <ele>305</ele>
        <time>2023-03-17T13:24:09Z</time>
      </trkpt>
      <trkpt lat="44.34017" lon="1.68365">
        <ele>303</ele>
        <time>2023-03-17T13:25:00Z</time>
      </trkpt>
      <trkpt lat="44.34033" lon="1.68383">
        <ele>301</ele>
        <time>2023-03-17T13:25:27Z</time>
      </trkpt>
      <trkpt lat="44.3403" lon="1.68381">
        <ele>302</ele>
        <time>2023-03-17T13:25:32Z</time>
      </trkpt>
      <trkpt lat="44.3403" lon="1.68383">
        <ele>301</ele>
        <time>2023-03-17T13:25:34Z</time>
      </trkpt>
      <trkpt lat="44.34032" lon="1.68382">
        <ele>301</ele>
        <time>2023-03-17T13:25:37Z</time>
      </trkpt>
      <trkpt lat="44.34033" lon="1.68379">
        <ele>302</ele>
        <time>2023-03-17T13:25:40Z</time>
      </trkpt>
      <trkpt lat="44.34037" lon="1.68408">
        <ele>300</ele>
        <time>2023-03-17T13:26:08Z</time>
      </trkpt>
      <trkpt lat="44.34037" lon="1.68442">
        <ele>298</ele>
        <time>2023-03-17T13:26:40Z</time>
      </trkpt>
      <trkpt lat="44.34041" lon="1.68469">
        <ele>297</ele>
        <time>2023-03-17T13:27:07Z</time>
      </trkpt>
      <trkpt lat="44.34049" lon="1.68582">
        <ele>296</ele>
        <time>2023-03-17T13:28:55Z</time>
      </trkpt>
      <trkpt lat="44.34053" lon="1.686">
        <ele>297</ele>
        <time>2023-03-17T13:29:13Z</time>
      </trkpt>
      <trkpt lat="44.34088" lon="1.68541">
        <ele>297</ele>
        <time>2023-03-17T13:30:26Z</time>
      </trkpt>
      <trkpt lat="44.34102" lon="1.68523">
        <ele>297</ele>
        <time>2023-03-17T13:30:52Z</time>
      </trkpt>
      <trkpt lat="44.34143" lon="1.68478">
        <ele>298</ele>
        <time>2023-03-17T13:32:01Z</time>
      </trkpt>
      <trkpt lat="44.34176" lon="1.68455">
        <ele>299</ele>
        <time>2023-03-17T13:32:50Z</time>
      </trkpt>
      <trkpt lat="44.34197" lon="1.68434">
        <ele>300</ele>
        <time>2023-03-17T13:33:25Z</time>
      </trkpt>
      <trkpt lat="44.34241" lon="1.68384">
        <ele>300</ele>
        <time>2023-03-17T13:34:41Z</time>
      </trkpt>
      <trkpt lat="44.3427" lon="1.68355">
        <ele>301</ele>
        <time>2023-03-17T13:35:28Z</time>
      </trkpt>
      <trkpt lat="44.34303" lon="1.68335">
        <ele>300</ele>
        <time>2023-03-17T13:36:16Z</time>
      </trkpt>
      <trkpt lat="44.34322" lon="1.68328">
        <ele>300</ele>
        <time>2023-03-17T13:36:42Z</time>
      </trkpt>
      <trkpt lat="44.34334" lon="1.68317">
        <ele>300</ele>
        <time>2023-03-17T13:37:01Z</time>
      </trkpt>
      <trkpt lat="44.34342" lon="1.68307">
        <ele>300</ele>
        <time>2023-03-17T13:37:16Z</time>
      </trkpt>
      <trkpt lat="44.34347" lon="1.68306">
        <ele>300</ele>
        <time>2023-03-17T13:37:23Z</time>
      </trkpt>
      <trkpt lat="44.34343" lon="1.68333">
        <ele>301</ele>
        <time>2023-03-17T13:37:49Z</time>
      </trkpt>
      <trkpt lat="44.34342" lon="1.68353">
        <ele>302</ele>
        <time>2023-03-17T13:38:08Z</time>
      </trkpt>
      <trkpt lat="44.34335" lon="1.68366">
        <ele>302</ele>
        <time>2023-03-17T13:38:23Z</time>
      </trkpt>
      <trkpt lat="44.34334" lon="1.68361">
        <ele>302</ele>
        <time>2023-03-17T13:38:28Z</time>
      </trkpt>
      <trkpt lat="44.34337" lon="1.68368">
        <ele>302</ele>
        <time>2023-03-17T13:38:36Z</time>
      </trkpt>
      <trkpt lat="44.34333" lon="1.68368">
        <ele>302</ele>
        <time>2023-03-17T13:38:42Z</time>
      </trkpt>
      <trkpt lat="44.34334" lon="1.68375">
        <ele>303</ele>
        <time>2023-03-17T13:38:48Z</time>
      </trkpt>
      <trkpt lat="44.34339" lon="1.68368">
        <ele>302</ele>
        <time>2023-03-17T13:38:58Z</time>
      </trkpt>
      <trkpt lat="44.34338" lon="1.68364">
        <ele>302</ele>
        <time>2023-03-17T13:39:02Z</time>
      </trkpt>
      <trkpt lat="44.34343" lon="1.68345">
        <ele>301</ele>
        <time>2023-03-17T13:39:21Z</time>
      </trkpt>
      <trkpt lat="44.34343" lon="1.68329">
        <ele>301</ele>
        <time>2023-03-17T13:39:36Z</time>
      </trkpt>
      <trkpt lat="44.34345" lon="1.68318">
        <ele>301</ele>
        <time>2023-03-17T13:39:47Z</time>
      </trkpt>
      <trkpt lat="44.34347" lon="1.68316">
        <ele>301</ele>
        <time>2023-03-17T13:39:51Z</time>
      </trkpt>
      <trkpt lat="44.34346" lon="1.68316">
        <ele>301</ele>
        <time>2023-03-17T13:39:52Z</time>
      </trkpt>
      <trkpt lat="44.34347" lon="1.68303">
        <ele>300</ele>
        <time>2023-03-17T13:40:04Z</time>
      </trkpt>
      <trkpt lat="44.34358" lon="1.68291">
        <ele>301</ele>
        <time>2023-03-17T13:40:23Z</time>
      </trkpt>
      <trkpt lat="44.34367" lon="1.68278">
        <ele>301</ele>
        <time>2023-03-17T13:40:40Z</time>
      </trkpt>
      <trkpt lat="44.34366" lon="1.68237">
        <ele>301</ele>
        <time>2023-03-17T13:41:19Z</time>
      </trkpt>
      <trkpt lat="44.34347" lon="1.68168">
        <ele>303</ele>
        <time>2023-03-17T13:42:30Z</time>
      </trkpt>
      <trkpt lat="44.34339" lon="1.68122">
        <ele>306</ele>
        <time>2023-03-17T13:43:15Z</time>
      </trkpt>
      <trkpt lat="44.34337" lon="1.68091">
        <ele>308</ele>
        <time>2023-03-17T13:43:45Z</time>
      </trkpt>
      <trkpt lat="44.34333" lon="1.6807">
        <ele>310</ele>
        <time>2023-03-17T13:44:06Z</time>
      </trkpt>
      <trkpt lat="44.3433" lon="1.68027">
        <ele>312</ele>
        <time>2023-03-17T13:44:47Z</time>
      </trkpt>
      <trkpt lat="44.34321" lon="1.67984">
        <ele>314</ele>
        <time>2023-03-17T13:45:30Z</time>
      </trkpt>
      <trkpt lat="44.34316" lon="1.6794">
        <ele>316</ele>
        <time>2023-03-17T13:46:12Z</time>
      </trkpt>
      <trkpt lat="44.34315" lon="1.67943">
        <ele>316</ele>
        <time>2023-03-17T13:46:15Z</time>
      </trkpt>
      <trkpt lat="44.34317" lon="1.67941">
        <ele>316</ele>
        <time>2023-03-17T13:46:19Z</time>
      </trkpt>
      <trkpt lat="44.34315" lon="1.67942">
        <ele>316</ele>
        <time>2023-03-17T13:46:21Z</time>
      </trkpt>
      <trkpt lat="44.34315" lon="1.6794">
        <ele>316</ele>
        <time>2023-03-17T13:46:23Z</time>
      </trkpt>
      <trkpt lat="44.34314" lon="1.67941">
        <ele>316</ele>
        <time>2023-03-17T13:46:25Z</time>
      </trkpt>
      <trkpt lat="44.34314" lon="1.67934">
        <ele>317</ele>
        <time>2023-03-17T13:46:32Z</time>
      </trkpt>
      <trkpt lat="44.3431" lon="1.67916">
        <ele>317</ele>
        <time>2023-03-17T13:46:50Z</time>
      </trkpt>
      <trkpt lat="44.34298" lon="1.679">
        <ele>318</ele>
        <time>2023-03-17T13:47:12Z</time>
      </trkpt>
      <trkpt lat="44.34263" lon="1.6789">
        <ele>320</ele>
        <time>2023-03-17T13:47:59Z</time>
      </trkpt>
      <trkpt lat="44.34247" lon="1.67887">
        <ele>320</ele>
        <time>2023-03-17T13:48:21Z</time>
      </trkpt>
      <trkpt lat="44.34229" lon="1.67886">
        <ele>320</ele>
        <time>2023-03-17T13:48:45Z</time>
      </trkpt>
      <trkpt lat="44.34213" lon="1.67873">
        <ele>321</ele>
        <time>2023-03-17T13:49:10Z</time>
      </trkpt>
      <trkpt lat="44.34193" lon="1.6785">
        <ele>323</ele>
        <time>2023-03-17T13:49:44Z</time>
      </trkpt>
      <trkpt lat="44.34181" lon="1.67843">
        <ele>323</ele>
        <time>2023-03-17T13:50:02Z</time>
      </trkpt>
      <trkpt lat="44.34158" lon="1.67839">
        <ele>323</ele>
        <time>2023-03-17T13:50:33Z</time>
      </trkpt>
      <trkpt lat="44.34142" lon="1.67839">
        <ele>323</ele>
        <time>2023-03-17T13:50:54Z</time>
      </trkpt>
      <trkpt lat="44.34125" lon="1.67834">
        <ele>323</ele>
        <time>2023-03-17T13:51:17Z</time>
      </trkpt>
      <trkpt lat="44.34101" lon="1.67832">
        <ele>323</ele>
        <time>2023-03-17T13:51:49Z</time>
      </trkpt>
      <trkpt lat="44.34067" lon="1.67833">
        <ele>323</ele>
        <time>2023-03-17T13:52:35Z</time>
      </trkpt>
      <trkpt lat="44.34064" lon="1.67823">
        <ele>323</ele>
        <time>2023-03-17T13:52:45Z</time>
      </trkpt>
      <trkpt lat="44.34069" lon="1.67787">
        <ele>324</ele>
        <time>2023-03-17T13:53:20Z</time>
      </trkpt>
      <trkpt lat="44.34072" lon="1.67745">
        <ele>325</ele>
        <time>2023-03-17T13:54:00Z</time>
      </trkpt>
      <trkpt lat="44.34095" lon="1.6756">
        <ele>323</ele>
        <time>2023-03-17T13:56:59Z</time>
      </trkpt>
      <trkpt lat="44.34097" lon="1.67528">
        <ele>323</ele>
        <time>2023-03-17T13:57:30Z</time>
      </trkpt>
      <trkpt lat="44.34104" lon="1.67479">
        <ele>323</ele>
        <time>2023-03-17T13:58:18Z</time>
      </trkpt>
      <trkpt lat="44.34108" lon="1.67432">
        <ele>324</ele>
        <time>2023-03-17T13:59:03Z</time>
      </trkpt>
      <trkpt lat="44.34117" lon="1.67382">
        <ele>324</ele>
        <time>2023-03-17T13:59:52Z</time>
      </trkpt>
      <trkpt lat="44.34119" lon="1.67358">
        <ele>323</ele>
        <time>2023-03-17T14:00:15Z</time>
      </trkpt>
      <trkpt lat="44.34136" lon="1.67254">
        <ele>323</ele>
        <time>2023-03-17T14:01:57Z</time>
      </trkpt>
      <trkpt lat="44.34142" lon="1.67177">
        <ele>324</ele>
        <time>2023-03-17T14:03:11Z</time>
      </trkpt>
      <trkpt lat="44.34156" lon="1.67089">
        <ele>323</ele>
        <time>2023-03-17T14:04:37Z</time>
      </trkpt>
      <trkpt lat="44.34155" lon="1.671">
        <ele>323</ele>
        <time>2023-03-17T14:04:48Z</time>
      </trkpt>
      <trkpt lat="44.34155" lon="1.67096">
        <ele>323</ele>
        <time>2023-03-17T14:04:51Z</time>
      </trkpt>
      <trkpt lat="44.34156" lon="1.67095">
        <ele>323</ele>
        <time>2023-03-17T14:04:53Z</time>
      </trkpt>
      <trkpt lat="44.34157" lon="1.67096">
        <ele>323</ele>
        <time>2023-03-17T14:04:55Z</time>
      </trkpt>
      <trkpt lat="44.34155" lon="1.67093">
        <ele>323</ele>
        <time>2023-03-17T14:04:59Z</time>
      </trkpt>
      <trkpt lat="44.34164" lon="1.67077">
        <ele>323</ele>
        <time>2023-03-17T14:05:18Z</time>
      </trkpt>
      <trkpt lat="44.34168" lon="1.67064">
        <ele>322</ele>
        <time>2023-03-17T14:05:31Z</time>
      </trkpt>
      <trkpt lat="44.34175" lon="1.6705">
        <ele>322</ele>
        <time>2023-03-17T14:05:48Z</time>
      </trkpt>
      <trkpt lat="44.34179" lon="1.67044">
        <ele>322</ele>
        <time>2023-03-17T14:05:56Z</time>
      </trkpt>
      <trkpt lat="44.34204" lon="1.67046">
        <ele>322</ele>
        <time>2023-03-17T14:06:29Z</time>
      </trkpt>
      <trkpt lat="44.34213" lon="1.67049">
        <ele>322</ele>
        <time>2023-03-17T14:06:41Z</time>
      </trkpt>
      <trkpt lat="44.3423" lon="1.6706">
        <ele>322</ele>
        <time>2023-03-17T14:07:06Z</time>
      </trkpt>
      <trkpt lat="44.3426" lon="1.67088">
        <ele>322</ele>
        <time>2023-03-17T14:07:54Z</time>
      </trkpt>
      <trkpt lat="44.34272" lon="1.67108">
        <ele>322</ele>
        <time>2023-03-17T14:08:19Z</time>
      </trkpt>
      <trkpt lat="44.34287" lon="1.67126">
        <ele>321</ele>
        <time>2023-03-17T14:08:46Z</time>
      </trkpt>
      <trkpt lat="44.34307" lon="1.67136">
        <ele>321</ele>
        <time>2023-03-17T14:09:14Z</time>
      </trkpt>
      <trkpt lat="44.34418" lon="1.67162">
        <ele>324</ele>
        <time>2023-03-17T14:11:44Z</time>
      </trkpt>
      <trkpt lat="44.34437" lon="1.67165">
        <ele>324</ele>
        <time>2023-03-17T14:12:10Z</time>
      </trkpt>
      <trkpt lat="44.34509" lon="1.67183">
        <ele>323</ele>
        <time>2023-03-17T14:13:47Z</time>
      </trkpt>
      <trkpt lat="44.34525" lon="1.67183">
        <ele>322</ele>
        <time>2023-03-17T14:14:09Z</time>
      </trkpt>
      <trkpt lat="44.34543" lon="1.67188">
        <ele>322</ele>
        <time>2023-03-17T14:14:33Z</time>
      </trkpt>
      <trkpt lat="44.34557" lon="1.67193">
        <ele>321</ele>
        <time>2023-03-17T14:14:53Z</time>
      </trkpt>
      <trkpt lat="44.34577" lon="1.67205">
        <ele>321</ele>
        <time>2023-03-17T14:15:22Z</time>
      </trkpt>
      <trkpt lat="44.34631" lon="1.67231">
        <ele>319</ele>
        <time>2023-03-17T14:16:38Z</time>
      </trkpt>
      <trkpt lat="44.34686" lon="1.67254">
        <ele>318</ele>
        <time>2023-03-17T14:17:54Z</time>
      </trkpt>
      <trkpt lat="44.34701" lon="1.67262">
        <ele>318</ele>
        <time>2023-03-17T14:18:16Z</time>
      </trkpt>
      <trkpt lat="44.34721" lon="1.67276">
        <ele>318</ele>
        <time>2023-03-17T14:18:46Z</time>
      </trkpt>
      <trkpt lat="44.34756" lon="1.67268">
        <ele>319</ele>
        <time>2023-03-17T14:19:33Z</time>
      </trkpt>
      <trkpt lat="44.34771" lon="1.67262">
        <ele>319</ele>
        <time>2023-03-17T14:19:54Z</time>
      </trkpt>
      <trkpt lat="44.34789" lon="1.67245">
        <ele>319</ele>
        <time>2023-03-17T14:20:23Z</time>
      </trkpt>
      <trkpt lat="44.34807" lon="1.67233">
        <ele>319</ele>
        <time>2023-03-17T14:20:49Z</time>
      </trkpt>
      <trkpt lat="44.34864" lon="1.67247">
        <ele>320</ele>
        <time>2023-03-17T14:22:07Z</time>
      </trkpt>
      <trkpt lat="44.34893" lon="1.67259">
        <ele>320</ele>
        <time>2023-03-17T14:22:47Z</time>
      </trkpt>
      <trkpt lat="44.34927" lon="1.6728">
        <ele>321</ele>
        <time>2023-03-17T14:23:37Z</time>
      </trkpt>
      <trkpt lat="44.34946" lon="1.67285">
        <ele>321</ele>
        <time>2023-03-17T14:24:02Z</time>
      </trkpt>
      <trkpt lat="44.3495" lon="1.67282">
        <ele>321</ele>
        <time>2023-03-17T14:24:08Z</time>
      </trkpt>
      <trkpt lat="44.34981" lon="1.67196">
        <ele>321</ele>
        <time>2023-03-17T14:25:40Z</time>
      </trkpt>
      <trkpt lat="44.34983" lon="1.67186">
        <ele>321</ele>
        <time>2023-03-17T14:25:50Z</time>
      </trkpt>
      <trkpt lat="44.34999" lon="1.67137">
        <ele>320</ele>
        <time>2023-03-17T14:26:42Z</time>
      </trkpt>
      <trkpt lat="44.35019" lon="1.67095">
        <ele>319</ele>
        <time>2023-03-17T14:27:30Z</time>
      </trkpt>
      <trkpt lat="44.35026" lon="1.67097">
        <ele>319</ele>
        <time>2023-03-17T14:27:39Z</time>
      </trkpt>
      <trkpt lat="44.35028" lon="1.67099">
        <ele>319</ele>
        <time>2023-03-17T14:27:43Z</time>
      </trkpt>
      <trkpt lat="44.35025" lon="1.67074">
        <ele>318</ele>
        <time>2023-03-17T14:28:07Z</time>
      </trkpt>
      <trkpt lat="44.35026" lon="1.67068">
        <ele>318</ele>
        <time>2023-03-17T14:28:13Z</time>
      </trkpt>
      <trkpt lat="44.35024" lon="1.67059">
        <ele>318</ele>
        <time>2023-03-17T14:28:22Z</time>
      </trkpt>
      <trkpt lat="44.35025" lon="1.67061">
        <ele>318</ele>
        <time>2023-03-17T14:28:24Z</time>
      </trkpt>
      <trkpt lat="44.35012" lon="1.67049">
        <ele>318</ele>
        <time>2023-03-17T14:28:45Z</time>
      </trkpt>
    </trkseg>
  </trk>
</gpx>